createdAt,value
2023-05-05T00:02:15.571Z,15.47
2023-05-05T00:04:42.161Z,15.47
2023-05-05T00:07:08.844Z,15.42
2023-05-05T00:09:35.248Z,15.33
2023-05-05T00:12:01.653Z,15.27
2023-05-05T00:14:28.068Z,15.26
2023-05-05T00:16:54.458Z,15.25
2023-05-05T00:19:20.893Z,15.17
2023-05-05T00:21:47.288Z,15.13
2023-05-05T00:24:13.722Z,14.96
2023-05-05T00:26:40.199Z,15.09
2023-05-05T00:29:06.631Z,15.10
2023-05-05T00:31:33.300Z,15.04
2023-05-05T00:33:59.729Z,15.06
2023-05-05T00:36:26.149Z,15.02
2023-05-05T00:38:52.526Z,15.00
2023-05-05T00:41:18.903Z,14.95
2023-05-05T00:43:45.289Z,14.85
2023-05-05T00:46:22.500Z,14.82
2023-05-05T00:48:48.968Z,14.65
2023-05-05T00:51:16.827Z,14.79
2023-05-05T00:53:45.028Z,14.91
2023-05-05T00:56:15.985Z,14.76
2023-05-05T00:58:43.123Z,14.72
2023-05-05T01:01:10.729Z,14.63
2023-05-05T01:03:38.726Z,14.50
2023-05-05T01:06:20.749Z,14.56
2023-05-05T01:09:02.097Z,14.77
2023-05-05T01:11:47.090Z,14.80
2023-05-05T01:14:16.975Z,14.86
2023-05-05T01:16:56.034Z,14.75
2023-05-05T01:19:34.546Z,14.49
2023-05-05T01:22:02.717Z,14.47
2023-05-05T01:24:53.480Z,14.44
2023-05-05T01:27:34.244Z,14.51
2023-05-05T01:30:28.175Z,14.54
2023-05-05T01:32:58.346Z,14.62
2023-05-05T01:35:31.696Z,14.55
2023-05-05T01:37:57.978Z,14.49
2023-05-05T01:40:27.355Z,14.45
2023-05-05T01:42:54.871Z,14.29
2023-05-05T01:45:24.768Z,14.44
2023-05-05T01:47:52.036Z,14.46
2023-05-05T01:50:18.738Z,14.46
2023-05-05T01:52:45.852Z,14.44
2023-05-05T01:55:12.871Z,14.31
2023-05-05T01:57:39.539Z,14.41
2023-05-05T02:00:07.524Z,14.35
2023-05-05T02:02:35.121Z,14.38
2023-05-05T02:05:02.781Z,14.28
2023-05-05T02:07:30.828Z,14.29
2023-05-05T02:09:57.803Z,14.49
2023-05-05T02:12:24.350Z,14.33
2023-05-05T02:14:51.171Z,14.36
2023-05-05T02:17:19.189Z,14.35
2023-05-05T02:19:46.283Z,14.31
2023-05-05T02:22:12.669Z,14.33
2023-05-05T02:24:39.097Z,14.34
2023-05-05T02:27:07.333Z,14.46
2023-05-05T02:29:42.570Z,14.28
2023-05-05T02:32:16.977Z,14.46
2023-05-05T02:34:45.236Z,14.34
2023-05-05T02:37:15.782Z,14.27
2023-05-05T02:39:46.206Z,14.31
2023-05-05T02:42:16.902Z,14.36
2023-05-05T02:44:45.041Z,14.65
2023-05-05T02:47:11.461Z,14.73
2023-05-05T02:49:37.858Z,14.67
2023-05-05T02:52:04.413Z,14.69
2023-05-05T02:54:31.353Z,14.61
2023-05-05T02:56:58.459Z,14.61
2023-05-05T02:59:31.265Z,14.74
2023-05-05T03:02:08.179Z,14.77
2023-05-05T03:04:58.859Z,14.94
2023-05-05T03:07:30.598Z,14.91
2023-05-05T03:10:09.643Z,15.12
2023-05-05T03:12:39.568Z,15.26
2023-05-05T03:15:07.453Z,15.44
2023-05-05T03:17:35.042Z,15.45
2023-05-05T03:20:03.925Z,15.56
2023-05-05T03:22:30.607Z,15.89
2023-05-05T03:24:57.055Z,16.08
2023-05-05T03:27:23.426Z,16.18
2023-05-05T03:29:49.833Z,16.28
2023-05-05T03:32:16.380Z,16.29
2023-05-05T03:34:42.873Z,16.40
2023-05-05T03:37:09.250Z,16.37
2023-05-05T03:39:36.112Z,16.56
2023-05-05T03:42:02.500Z,16.47
2023-05-05T03:44:28.933Z,16.50
2023-05-05T03:46:55.336Z,16.75
2023-05-05T03:49:21.743Z,16.80
2023-05-05T03:51:48.128Z,16.86
2023-05-05T03:54:14.796Z,16.86
2023-05-05T03:56:41.234Z,16.91
2023-05-05T03:59:08.659Z,16.82
2023-05-05T04:01:37.901Z,16.72
2023-05-05T04:04:04.456Z,16.67
2023-05-05T04:06:32.000Z,16.85
2023-05-05T04:08:58.362Z,16.73
2023-05-05T04:11:24.907Z,16.67
2023-05-05T04:13:51.291Z,16.75
2023-05-05T04:16:17.690Z,16.71
2023-05-05T04:18:44.125Z,16.79
2023-05-05T04:21:10.561Z,16.72
2023-05-05T04:23:36.965Z,16.85
2023-05-05T04:26:03.352Z,16.84
2023-05-05T04:28:29.749Z,16.79
2023-05-05T04:30:56.148Z,16.83
2023-05-05T04:33:22.600Z,16.87
2023-05-05T04:35:48.985Z,16.82
2023-05-05T04:38:15.523Z,16.73
2023-05-05T04:40:41.959Z,16.63
2023-05-05T04:43:08.487Z,16.49
2023-05-05T04:45:34.881Z,16.61
2023-05-05T04:48:01.799Z,16.81
2023-05-05T04:50:28.194Z,16.89
2023-05-05T04:52:54.591Z,16.92
2023-05-05T04:55:21.115Z,16.88
2023-05-05T04:57:47.492Z,16.74
2023-05-05T05:00:14.162Z,16.69
2023-05-05T05:02:41.499Z,16.57
2023-05-05T05:05:08.421Z,16.52
2023-05-05T05:07:34.816Z,16.69
2023-05-05T05:10:01.205Z,16.80
2023-05-05T05:12:27.603Z,16.57
2023-05-05T05:14:53.987Z,16.81
2023-05-05T05:17:21.095Z,16.89
2023-05-05T05:19:47.494Z,16.77
2023-05-05T05:22:13.853Z,16.84
2023-05-05T05:24:40.258Z,16.75
2023-05-05T05:27:10.100Z,16.86
2023-05-05T05:29:36.799Z,16.61
2023-05-05T05:32:03.270Z,16.61
2023-05-05T05:34:29.822Z,16.75
2023-05-05T05:36:56.255Z,16.83
2023-05-05T05:39:23.181Z,16.90
2023-05-05T05:41:49.580Z,16.80
2023-05-05T05:44:15.975Z,16.94
2023-05-05T05:46:42.502Z,17.05
2023-05-05T05:49:09.030Z,17.09
2023-05-05T05:51:35.559Z,17.16
2023-05-05T05:54:01.940Z,17.17
2023-05-05T05:56:29.074Z,17.15
2023-05-05T05:58:55.555Z,17.13
2023-05-05T06:01:21.935Z,17.28
2023-05-05T06:03:48.427Z,16.97
2023-05-05T06:06:14.902Z,16.80
2023-05-05T06:08:41.398Z,17.19
2023-05-05T06:11:07.872Z,17.45
2023-05-05T06:13:34.251Z,17.40
2023-05-05T06:16:00.764Z,17.23
2023-05-05T06:18:27.332Z,17.30
2023-05-05T06:20:53.774Z,17.20
2023-05-05T06:23:20.144Z,17.27
2023-05-05T06:25:46.691Z,17.08
2023-05-05T06:28:13.059Z,17.34
2023-05-05T06:30:39.446Z,17.08
2023-05-05T06:33:05.977Z,17.19
2023-05-05T06:35:32.523Z,17.40
2023-05-05T06:37:58.966Z,17.72
2023-05-05T06:40:25.394Z,17.34
2023-05-05T06:42:51.787Z,17.80
2023-05-05T06:45:18.220Z,17.47
2023-05-05T06:47:44.675Z,17.85
2023-05-05T06:50:11.390Z,17.81
2023-05-05T06:52:37.906Z,17.83
2023-05-05T06:55:04.596Z,17.96
2023-05-05T06:57:31.031Z,17.63
2023-05-05T06:59:57.428Z,17.89
2023-05-05T07:02:26.007Z,18.08
2023-05-05T07:04:55.260Z,18.05
2023-05-05T07:07:21.818Z,18.22
2023-05-05T07:09:48.195Z,18.10
2023-05-05T07:12:14.577Z,18.60
2023-05-05T07:14:40.935Z,18.71
2023-05-05T07:17:07.320Z,18.53
2023-05-05T07:19:33.688Z,18.57
2023-05-05T07:22:00.058Z,18.58
2023-05-05T07:24:26.455Z,18.74
2023-05-05T07:26:52.832Z,18.67
2023-05-05T07:29:19.224Z,18.87
2023-05-05T07:31:45.883Z,18.85
2023-05-05T07:34:12.305Z,18.66
2023-05-05T07:36:38.710Z,18.72
2023-05-05T07:39:05.090Z,18.94
2023-05-05T07:41:31.605Z,18.87
2023-05-05T07:43:58.042Z,18.83
2023-05-05T07:46:24.444Z,18.94
2023-05-05T07:48:50.936Z,18.72
2023-05-05T07:51:17.386Z,19.09
2023-05-05T07:53:43.913Z,19.39
2023-05-05T07:56:10.481Z,18.98
2023-05-05T07:58:36.933Z,19.17
2023-05-05T08:01:05.752Z,19.15
2023-05-05T08:03:32.229Z,19.04
2023-05-05T08:06:07.332Z,19.44
2023-05-05T08:08:33.875Z,19.71
2023-05-05T08:11:01.143Z,19.51
2023-05-05T08:13:28.464Z,19.81
2023-05-05T08:15:54.944Z,19.95
2023-05-05T08:18:21.385Z,20.03
2023-05-05T08:20:47.849Z,20.21
2023-05-05T08:23:14.212Z,20.18
2023-05-05T08:25:40.780Z,20.23
2023-05-05T08:28:07.208Z,20.06
2023-05-05T08:30:34.965Z,20.35
2023-05-05T08:33:01.481Z,19.86
2023-05-05T08:35:27.970Z,19.71
2023-05-05T08:37:55.973Z,20.00
2023-05-05T08:40:29.986Z,19.85
2023-05-05T08:42:56.430Z,19.89
2023-05-05T08:45:22.827Z,20.37
2023-05-05T08:47:49.280Z,19.85
2023-05-05T08:50:17.247Z,19.87
2023-05-05T08:52:45.048Z,20.08
2023-05-05T08:55:21.287Z,19.94
2023-05-05T08:57:52.670Z,19.90
2023-05-05T09:00:19.846Z,20.51
2023-05-05T09:02:47.280Z,20.74
2023-05-05T09:05:13.746Z,20.84
2023-05-05T09:07:43.912Z,21.49
2023-05-05T09:10:11.807Z,21.85
2023-05-05T09:12:42.015Z,21.42
2023-05-05T09:15:10.521Z,20.69
2023-05-05T09:17:37.785Z,20.46
2023-05-05T09:20:08.760Z,20.56
2023-05-05T09:22:37.531Z,20.60
2023-05-05T09:25:05.930Z,20.71
2023-05-05T09:27:41.351Z,21.37
2023-05-05T09:30:09.437Z,22.05
2023-05-05T09:32:49.188Z,21.59
2023-05-05T09:35:16.666Z,22.40
2023-05-05T09:37:43.052Z,22.18
2023-05-05T09:40:10.141Z,22.21
2023-05-05T09:42:37.835Z,21.41
2023-05-05T09:45:26.029Z,21.96
2023-05-05T09:50:19.741Z,23.05
2023-05-05T09:52:55.414Z,23.35
2023-05-05T09:55:22.128Z,22.73
2023-05-05T09:57:48.569Z,22.83
2023-05-05T10:00:15.414Z,22.92
2023-05-05T10:02:41.992Z,23.12
2023-05-05T10:05:11.261Z,22.87
2023-05-05T10:07:38.870Z,21.50
2023-05-05T10:10:07.058Z,22.27
2023-05-05T10:12:37.527Z,22.22
2023-05-05T10:15:05.639Z,22.91
2023-05-05T10:17:33.549Z,23.63
2023-05-05T10:20:01.041Z,24.32
2023-05-05T10:22:29.584Z,24.38
2023-05-05T10:25:03.490Z,22.73
2023-05-05T10:27:34.632Z,23.03
2023-05-05T10:30:06.135Z,23.27
2023-05-05T10:32:59.283Z,23.84
2023-05-05T10:35:33.023Z,23.30
2023-05-05T10:38:00.049Z,23.96
2023-05-05T10:40:26.798Z,23.63
2023-05-05T10:42:54.104Z,23.79
2023-05-05T10:45:20.858Z,24.40
2023-05-05T10:47:47.632Z,24.32
2023-05-05T10:50:33.565Z,24.45
2023-05-05T10:53:16.685Z,25.05
2023-05-05T10:56:08.911Z,23.85
2023-05-05T10:58:46.971Z,22.73
2023-05-05T11:01:33.799Z,24.33
2023-05-05T11:04:23.159Z,23.95
2023-05-05T11:07:08.123Z,23.97
2023-05-05T11:09:42.500Z,24.09
2023-05-05T11:12:09.129Z,24.60
2023-05-05T11:14:35.758Z,23.96
2023-05-05T11:17:02.374Z,24.11
2023-05-05T11:19:43.975Z,24.69
2023-05-05T11:22:10.747Z,24.67
2023-05-05T11:24:39.549Z,24.81
2023-05-05T11:27:06.236Z,24.91
2023-05-05T11:30:03.646Z,25.20
2023-05-05T11:32:30.343Z,25.32
2023-05-05T11:34:59.667Z,24.83
2023-05-05T11:37:27.558Z,25.07
2023-05-05T11:40:04.621Z,25.06
2023-05-05T11:42:31.128Z,25.15
2023-05-05T11:44:57.791Z,25.38
2023-05-05T11:47:25.502Z,25.35
2023-05-05T11:49:51.919Z,25.17
2023-05-05T11:52:18.348Z,24.49
2023-05-05T11:54:49.907Z,23.99
2023-05-05T11:57:19.542Z,23.52
2023-05-05T11:59:52.709Z,23.84
2023-05-05T12:02:19.842Z,23.49
2023-05-05T12:04:47.126Z,23.35
2023-05-05T12:07:21.087Z,23.52
2023-05-05T12:09:48.723Z,24.06
2023-05-05T12:12:15.914Z,24.79
2023-05-05T12:14:50.402Z,23.60
2023-05-05T12:17:17.540Z,24.14
2023-05-05T12:19:51.199Z,24.32
2023-05-05T12:22:28.087Z,24.19
2023-05-05T12:24:58.872Z,23.46
2023-05-05T12:27:26.942Z,23.32
2023-05-05T12:29:55.441Z,23.02
2023-05-05T12:32:27.685Z,22.17
2023-05-05T12:34:57.268Z,22.67
2023-05-05T12:37:25.306Z,22.90
2023-05-05T12:39:52.032Z,22.74
2023-05-05T12:42:18.841Z,22.74
2023-05-05T12:44:46.571Z,22.92
2023-05-05T12:47:13.829Z,22.55
2023-05-05T12:49:47.817Z,22.22
2023-05-05T12:52:16.106Z,21.64
2023-05-05T12:54:56.474Z,19.27
2023-05-05T12:57:23.272Z,18.63
2023-05-05T12:59:51.007Z,17.59
2023-05-05T13:02:17.439Z,17.62
2023-05-05T13:04:53.823Z,17.57
2023-05-05T13:07:21.355Z,17.46
2023-05-05T13:09:48.941Z,17.66
2023-05-05T13:12:17.533Z,17.62
2023-05-05T13:14:44.270Z,17.42
2023-05-05T13:17:12.923Z,17.31
2023-05-05T13:19:45.879Z,17.78
2023-05-05T13:22:13.333Z,17.76
2023-05-05T13:24:50.597Z,17.99
2023-05-05T13:27:18.566Z,18.21
2023-05-05T13:29:44.991Z,18.38
2023-05-05T13:32:11.564Z,18.55
2023-05-05T13:34:39.011Z,17.92
2023-05-05T13:37:05.595Z,18.36
2023-05-05T13:39:31.980Z,18.57
2023-05-05T13:41:58.429Z,18.77
2023-05-05T13:44:24.971Z,18.86
2023-05-05T13:46:51.464Z,18.90
2023-05-05T13:49:18.019Z,18.72
2023-05-05T13:51:46.106Z,18.97
2023-05-05T13:54:12.485Z,19.15
2023-05-05T13:56:38.966Z,19.12
2023-05-05T13:59:05.345Z,19.19
2023-05-05T14:01:31.805Z,19.09
2023-05-05T14:03:58.423Z,19.16
2023-05-05T14:06:25.739Z,19.23
2023-05-05T14:08:52.117Z,19.64
2023-05-05T14:11:20.650Z,19.69
2023-05-05T14:13:47.418Z,19.92
2023-05-05T14:16:13.910Z,19.98
2023-05-05T14:18:40.763Z,19.91
2023-05-05T14:21:07.231Z,19.76
2023-05-05T14:23:33.671Z,19.87
2023-05-05T14:26:00.416Z,20.11
2023-05-05T14:28:26.889Z,20.10
2023-05-05T14:30:53.310Z,20.00
2023-05-05T14:33:19.726Z,20.00
2023-05-05T14:35:46.108Z,19.94
2023-05-05T14:38:12.550Z,20.07
2023-05-05T14:40:38.945Z,19.96
2023-05-05T14:43:05.333Z,19.76
2023-05-05T14:45:31.752Z,19.70
2023-05-05T14:47:58.203Z,19.72
2023-05-05T14:50:24.663Z,19.77
2023-05-05T14:52:51.113Z,19.82
2023-05-05T14:55:17.599Z,19.78
2023-05-05T14:57:44.021Z,19.77
2023-05-05T15:00:10.928Z,19.98
2023-05-05T15:02:37.659Z,20.12
2023-05-05T15:05:04.458Z,20.07
2023-05-05T15:07:30.910Z,19.97
2023-05-05T15:09:57.396Z,19.91
2023-05-05T15:12:23.969Z,19.44
2023-05-05T15:14:50.466Z,19.11
2023-05-05T15:17:16.898Z,18.73
2023-05-05T15:19:43.282Z,18.31
2023-05-05T15:22:09.757Z,18.09
2023-05-05T15:24:37.096Z,17.84
2023-05-05T15:27:03.586Z,17.62
2023-05-05T15:29:30.024Z,17.30
2023-05-05T15:31:56.410Z,16.38
2023-05-05T15:34:22.803Z,15.95
2023-05-05T15:36:49.208Z,15.92
2023-05-05T15:39:15.675Z,15.89
2023-05-05T15:41:42.029Z,15.80
2023-05-05T15:44:11.666Z,15.80
2023-05-05T15:46:39.051Z,15.20
2023-05-05T15:49:05.545Z,15.16
2023-05-05T15:51:32.239Z,14.96
2023-05-05T15:53:59.372Z,15.01
2023-05-05T15:56:29.284Z,14.69
2023-05-05T15:58:56.614Z,14.59
2023-05-05T16:01:23.124Z,14.41
2023-05-05T16:03:49.613Z,14.51
2023-05-05T16:06:16.315Z,14.61
2023-05-05T16:08:42.773Z,14.24
2023-05-05T16:11:09.312Z,14.07
2023-05-05T16:13:35.858Z,14.15
2023-05-05T16:16:02.350Z,13.92
2023-05-05T16:18:28.760Z,13.93
2023-05-05T16:20:55.154Z,14.01
2023-05-05T16:23:21.555Z,14.26
2023-05-05T16:25:47.950Z,14.26
2023-05-05T16:28:14.368Z,14.15
2023-05-05T16:30:42.730Z,14.47
2023-05-05T16:33:09.239Z,14.79
2023-05-05T16:35:36.148Z,14.87
2023-05-05T16:38:02.520Z,14.42
2023-05-05T16:40:29.344Z,14.54
2023-05-05T16:42:55.794Z,14.64
2023-05-05T16:45:22.498Z,14.56
2023-05-05T16:47:49.057Z,14.83
2023-05-05T16:50:17.284Z,15.02
2023-05-05T16:52:43.704Z,15.21
2023-05-05T16:55:10.193Z,15.13
2023-05-05T16:57:36.983Z,15.03
2023-05-05T17:00:05.027Z,14.51
2023-05-05T17:02:31.556Z,15.00
2023-05-05T17:04:58.025Z,15.27
2023-05-05T17:07:24.481Z,15.49
2023-05-05T17:09:50.967Z,15.49
2023-05-05T17:12:17.403Z,15.37
2023-05-05T17:14:45.255Z,15.58
2023-05-05T17:17:11.921Z,15.65
2023-05-05T17:19:38.348Z,15.71
2023-05-05T17:22:04.977Z,15.80
2023-05-05T17:24:31.406Z,15.84
2023-05-05T17:26:58.306Z,15.79
2023-05-05T17:29:24.786Z,15.83
2023-05-05T17:31:51.574Z,15.96
2023-05-05T17:34:18.091Z,15.87
2023-05-05T17:36:44.522Z,15.92
2023-05-05T17:39:11.375Z,15.98
2023-05-05T17:41:37.765Z,16.12
2023-05-05T17:44:04.292Z,16.07
2023-05-05T17:46:30.712Z,16.15
2023-05-05T17:48:57.240Z,16.02
2023-05-05T17:51:23.726Z,16.13
2023-05-05T17:53:50.111Z,16.24
2023-05-05T17:56:16.536Z,16.11
2023-05-05T17:58:42.984Z,16.08
2023-05-05T18:01:13.459Z,16.03
2023-05-05T18:03:40.980Z,16.08
2023-05-05T18:06:07.665Z,16.03
2023-05-05T18:08:34.051Z,15.98
2023-05-05T18:11:01.716Z,15.86
2023-05-05T18:13:28.181Z,15.80
2023-05-05T18:15:54.593Z,15.72
2023-05-05T18:18:21.205Z,15.65
2023-05-05T18:20:47.648Z,15.70
2023-05-05T18:23:14.113Z,15.76
2023-05-05T18:25:41.401Z,15.66
2023-05-05T18:28:07.866Z,15.64
2023-05-05T18:30:35.557Z,15.64
2023-05-05T18:33:02.248Z,15.57
2023-05-05T18:35:28.951Z,15.53
2023-05-05T18:37:55.410Z,15.53
2023-05-05T18:40:22.289Z,15.47
2023-05-05T18:42:48.826Z,15.94
2023-05-05T18:45:15.313Z,16.30
2023-05-05T18:47:41.797Z,16.04
2023-05-05T18:50:09.853Z,16.01
2023-05-05T18:52:36.347Z,15.72
2023-05-05T18:55:02.800Z,15.58
2023-05-05T18:57:29.250Z,15.51
2023-05-05T18:59:55.686Z,15.36
2023-05-05T19:02:22.115Z,15.48
2023-05-05T19:04:48.606Z,15.47
2023-05-05T19:10:01.356Z,15.20
2023-05-05T19:12:27.731Z,15.26
2023-05-05T19:14:54.130Z,14.87
2023-05-05T19:17:20.486Z,15.02
2023-05-05T19:19:46.871Z,14.86
2023-05-05T19:22:13.255Z,14.92
2023-05-05T19:24:39.672Z,14.91
2023-05-05T19:27:08.010Z,14.77
2023-05-05T19:29:34.385Z,14.74
2023-05-05T19:32:00.914Z,14.82
2023-05-05T19:34:27.301Z,14.78
2023-05-05T19:36:53.680Z,14.75
2023-05-05T19:39:20.083Z,14.91
2023-05-05T19:41:46.484Z,14.65
2023-05-05T19:44:12.910Z,14.45
2023-05-05T19:46:39.445Z,14.28
2023-05-05T19:49:06.163Z,14.02
2023-05-05T19:51:32.574Z,14.08
2023-05-05T19:53:59.412Z,14.26
2023-05-05T19:56:26.191Z,14.18
2023-05-05T19:58:57.611Z,14.32
2023-05-05T20:01:24.227Z,14.27
2023-05-05T20:03:51.974Z,13.98
2023-05-05T20:06:18.651Z,14.02
2023-05-05T20:08:45.047Z,14.10
2023-05-05T20:11:11.844Z,13.93
2023-05-05T20:13:38.947Z,13.95
2023-05-05T20:16:06.441Z,13.76
2023-05-05T20:18:33.047Z,13.57
2023-05-05T20:20:59.516Z,13.70
2023-05-05T20:23:26.487Z,13.63
2023-05-05T20:25:53.674Z,13.59
2023-05-05T20:28:20.079Z,13.50
2023-05-05T20:30:46.599Z,13.45
2023-05-05T20:33:13.064Z,13.31
2023-05-05T20:35:39.561Z,13.23
2023-05-05T20:38:06.044Z,13.23
2023-05-05T20:40:33.617Z,13.50
2023-05-05T20:43:00.135Z,13.54
2023-05-05T20:45:26.686Z,13.52
2023-05-05T20:47:53.225Z,13.41
2023-05-05T20:50:22.492Z,13.38
2023-05-05T20:52:49.505Z,13.15
2023-05-05T20:55:15.963Z,12.96
2023-05-05T20:57:42.342Z,13.03
2023-05-05T21:00:09.286Z,12.97
2023-05-05T21:02:36.109Z,12.96
2023-05-05T21:05:02.942Z,12.96
2023-05-05T21:07:31.196Z,12.89
2023-05-05T21:09:57.704Z,12.80
2023-05-05T21:12:24.113Z,12.69
2023-05-05T21:14:50.576Z,12.94
2023-05-05T21:17:17.050Z,12.94
2023-05-05T21:19:43.429Z,12.69
2023-05-05T21:22:09.859Z,12.72
2023-05-05T21:24:38.206Z,12.76
2023-05-05T21:27:04.602Z,12.72
2023-05-05T21:29:37.329Z,12.66
2023-05-05T21:32:04.867Z,13.06
2023-05-05T21:34:31.409Z,12.70
2023-05-05T21:36:58.075Z,12.57
2023-05-05T21:39:24.884Z,12.47
2023-05-05T21:41:51.454Z,12.32
2023-05-05T21:44:17.845Z,12.20
2023-05-05T21:46:44.306Z,12.39
2023-05-05T21:49:15.334Z,12.26
2023-05-05T21:51:45.719Z,12.38
2023-05-05T21:54:12.123Z,12.48
2023-05-05T21:56:38.615Z,12.55
2023-05-05T21:59:05.419Z,12.40
2023-05-05T22:01:32.125Z,12.24
2023-05-05T22:03:58.643Z,12.19
2023-05-05T22:06:25.293Z,12.25
2023-05-05T22:08:51.744Z,12.09
2023-05-05T22:11:18.743Z,12.17
2023-05-05T22:13:46.417Z,12.14
2023-05-05T22:16:12.896Z,12.15
2023-05-05T22:18:39.288Z,12.26
2023-05-05T22:21:05.876Z,12.25
2023-05-05T22:23:32.276Z,12.31
2023-05-05T22:25:58.654Z,12.56
2023-05-05T22:28:25.124Z,12.44
2023-05-05T22:30:51.530Z,12.14
2023-05-05T22:33:18.956Z,11.99
2023-05-05T22:35:45.334Z,11.94
2023-05-05T22:38:11.764Z,12.03
2023-05-05T22:40:38.149Z,12.08
2023-05-05T22:43:04.650Z,12.02
2023-05-05T22:45:31.128Z,12.01
2023-05-05T22:47:57.695Z,11.92
2023-05-05T22:50:24.379Z,11.82
2023-05-05T22:52:50.851Z,11.83
2023-05-05T22:55:17.504Z,11.85
2023-05-05T22:57:43.883Z,11.87
2023-05-05T23:00:10.739Z,11.80
2023-05-05T23:02:37.852Z,11.88
2023-05-05T23:05:04.510Z,12.11
2023-05-05T23:07:30.924Z,12.02
2023-05-05T23:09:57.314Z,12.09
2023-05-05T23:12:23.726Z,11.88
2023-05-05T23:14:50.353Z,11.74
2023-05-05T23:17:16.845Z,11.75
2023-05-05T23:19:43.260Z,11.84
2023-05-05T23:22:09.634Z,11.89
2023-05-05T23:24:36.094Z,11.81
2023-05-05T23:27:03.115Z,11.79
2023-05-05T23:29:29.719Z,11.88
2023-05-05T23:31:56.659Z,11.83
2023-05-05T23:34:23.184Z,11.77
2023-05-05T23:36:49.805Z,11.63
2023-05-05T23:39:16.446Z,11.69
2023-05-05T23:41:42.827Z,11.89
2023-05-05T23:44:09.226Z,11.85
2023-05-05T23:46:35.688Z,11.84
2023-05-05T23:49:02.086Z,11.61
2023-05-05T23:51:28.500Z,11.60
2023-05-05T23:53:56.515Z,11.63
2023-05-05T23:56:23.635Z,11.62
2023-05-05T23:58:50.004Z,11.66
